Date,TemperatureHighF,TemperatureAvgF,TemperatureLowF,DewpointHighF,DewpointAvgF,DewpointLowF,HumidityHigh,HumidityAvg,HumidityLow,PressureMaxIn,PressureMinIn,WindSpeedMaxMPH,WindSpeedAvgMPH,GustSpeedMaxMPH,PrecipitationSumIn
2013-2-1,42.3,35.4,29.3,36.3,33.0,28.1,99,91,79,30.50,30.39,3,0,7,0.00
2013-2-2,35.3,32.8,28.8,35.0,32.5,28.6,99,99,98,30.57,30.37,2,0,5,0.00
2013-2-3,35.6,34.3,31.7,34.8,33.7,31.5,99,98,96,30.30,30.22,1,0,3,0.00
2013-2-4,40.7,38.6,34.5,37.0,35.6,33.0,94,89,86,30.13,30.08,2,0,5,0.00
2013-2-5,43.1,38.7,30.4,38.0,35.8,30.2,99,90,80,29.97,29.88,3,1,9,0.00
2013-2-6,44.6,39.4,32.8,35.9,33.9,31.1,94,81,69,30.10,30.04,3,1,9,0.00
2013-2-7,43.4,39.2,35.7,38.5,35.5,34.1,95,87,73,30.05,29.97,3,0,7,0.00
2013-2-8,41.5,36.1,31.6,35.3,33.2,30.1,97,89,74,30.17,30.12,2,0,5,0.00
2013-2-9,36.2,31.7,26.4,31.3,29.1,25.2,96,90,81,30.23,30.11,3,0,6,0.00
2013-2-10,35.0,32.4,26.6,30.9,29.5,26.1,98,89,82,30.37,30.32,2,0,5,0.00
2013-2-11,40.7,36.5,30.6,32.7,31.5,28.8,93,82,72,30.29,30.25,2,0,5,0.00
2013-2-12,44.0,39.5,33.3,38.0,34.9,31.5,93,84,74,30.35,30.19,4,1,12,0.00
2013-2-13,48.1,43.4,35.7,36.0,33.1,29.5,91,67,55,30.27,30.23,3,2,10,0.00
2013-2-14,44.3,35.9,25.2,33.6,29.8,24.0,95,79,62,30.57,30.50,3,1,7,0.00
2013-2-15,50.2,39.5,25.5,38.0,32.7,24.5,96,78,61,30.61,30.34,2,1,5,0.00
2013-2-16,45.1,42.0,34.4,39.7,36.6,31.5,90,81,75,30.18,29.98,3,1,8,0.00
2013-2-18,43.6,39.2,29.4,30.4,28.2,25.4,85,65,53,30.07,29.85,3,1,8,0.00
2013-2-19,37.0,35.1,32.8,35.0,33.4,31.8,97,94,91,29.88,29.77,3,0,7,0.00
2013-2-20,39.6,34.1,27.0,33.5,29.5,24.4,94,84,66,30.04,30.00,3,1,9,0.00
2013-2-21,37.9,34.8,32.3,35.3,32.9,30.9,97,93,87,30.08,30.03,3,1,7,0.00
2013-2-22,39.6,35.8,33.7,37.5,34.6,32.7,98,95,91,29.90,29.70,5,3,13,0.14
2013-2-23,45.4,39.0,30.7,30.9,28.1,24.0,83,66,43,30.17,29.94,5,2,12,0.00
2013-2-24,40.8,37.0,28.5,30.7,29.2,26.4,92,74,64,30.38,30.27,4,2,10,0.00
2013-2-25,44.2,39.4,33.3,35.6,33.3,28.4,97,80,60,30.00,29.94,5,3,19,0.17
2013-2-26,42.8,37.9,32.4,29.9,28.0,26.0,82,68,53,30.37,30.30,4,1,10,0.00
2013-2-27,47.2,41.7,31.5,31.8,29.4,26.9,90,62,49,30.32,30.29,4,2,11,0.00
2013-2-28,42.3,39.2,34.1,39.3,37.3,32.7,97,93,86,30.39,30.35,2,0,7,0.16